CheckWX is a tool to help pilots better visualize weather data.  It is not intended as a substitute for an official pre-flight weather briefing.

08:06:21 UTC

EGXP TAF
RAF Scampton Airport
Scampton, United Kingdom
TAF AMD EGXP 190530Z 1906/1915 23008KT 5000 BR BKN040 PROB30 1906/1908 0300 FG PROB40 TEMPO 1906/1915 SCT018 PROB30 TEMPO 1906/1908 SCT004 BECMG 1908/1910 9999 NSW

Mar-19@
06:00 UTC

Mar-19 @ 06:00 UTC

Mar-19@
08:00 UTC

Mar-19 @ 08:00 UTC

TAF AMD EGXP 190530Z 1906/1915 23008KT 5000 BR BKN040

Expired

Wind
  • 230° at 8 KTS
Conditions
Mist
Cloud Levels
  • Broken at 4,000' AGL

Mar-19@
06:00 UTC

Mar-19 @ 06:00 UTC

Mar-19@
08:00 UTC

Mar-19 @ 08:00 UTC

PROB30 1906/1908 0300 FG

Expired

Conditions
Fog

Mar-19@
06:00 UTC

Mar-19 @ 06:00 UTC

Mar-19@
08:00 UTC

Mar-19 @ 08:00 UTC

PROB30 TEMPO 1906/1908 SCT004

Expired

Cloud Levels
  • Scattered at 400' AGL

Mar-19@
06:00 UTC

Mar-19 @ 06:00 UTC

Mar-19@
15:00 UTC

Mar-19 @ 15:00 UTC

PROB40 TEMPO 1906/1915 SCT018

Temporary - 40% Likelihood

Temporary - 40% Likelihood during this time.

Cloud Levels
  • Scattered at 1,800' AGL

Mar-19@
08:00 UTC

Mar-19 @ 08:00 UTC

Mar-19@
15:00 UTC

Mar-19 @ 15:00 UTC

BECMG 1908/1910 9999 NSW

Becoming

Becoming Conditions expected by Tue, Mar 19, 2019 @ 10:00 UTC

Wind
  • 230° at 8 KTS
Conditions
No significant weather
Cloud Levels
  • Broken at 4,000' AGL